Whitcomb, Wisconsin
Current Conditions -  °F | °C
As of 3:55 AM on Thursday 23 Oct 2014 (Local Time) from KCLI Reporting Station
Haze Haze  
Wind Chill: 30°   Ceiling: 100
Heat Index: 30°   Visibility: 1mi
Dew Point: 30°   Wind: 0mph
Humidity: 100%   Direction: NA
Pressure: 30.18"   Gusts: NA
Location:  44.7254°N, 89.0642°W
Report Text: KCLI 230855Z AUTO 00000KT 1SM BR OVC001 M01/M01 A3018 RMK AO2
Loading
Personal Weather Stations






























Interactive Weather Map
Tropical Storm Tracking
New forecast layout! Learn more

10-Day Weather Forecast

Advertisements
Track Severe Weather on mobile